sensor_id;sensor_type;location;lat;lon;timestamp;P1;P2;P0
46044;PMS7003;31781;54.094;13.428;2022-09-13T00:02:33;3.00;3.00;2.00
46044;PMS7003;31781;54.094;13.428;2022-09-13T00:07:41;4.75;3.00;2.00
46044;PMS7003;31781;54.094;13.428;2022-09-13T00:12:46;2.00;2.00;1.00
46044;PMS7003;31781;54.094;13.428;2022-09-13T00:23:08;3.25;2.50;2.00
46044;PMS7003;31781;54.094;13.428;2022-09-13T00:28:28;3.00;3.00;2.50
46044;PMS7003;31781;54.094;13.428;2022-09-13T00:33:46;2.00;2.00;2.00
46044;PMS7003;31781;54.094;13.428;2022-09-13T00:49:46;2.00;2.00;2.00
46044;PMS7003;31781;54.094;13.428;2022-09-13T00:55:10;2.25;2.25;1.75
46044;PMS7003;31781;54.094;13.428;2022-09-13T01:00:18;2.50;2.50;1.75
46044;PMS7003;31781;54.094;13.428;2022-09-13T01:05:23;3.75;3.00;2.00
46044;PMS7003;31781;54.094;13.428;2022-09-13T01:10:34;3.00;3.00;2.00
46044;PMS7003;31781;54.094;13.428;2022-09-13T01:15:37;3.25;3.25;2.25
46044;PMS7003;31781;54.094;13.428;2022-09-13T01:20:44;3.75;2.75;2.25
46044;PMS7003;31781;54.094;13.428;2022-09-13T01:31:39;4.00;4.00;3.75
46044;PMS7003;31781;54.094;13.428;2022-09-13T01:36:59;3.75;2.25;2.00
46044;PMS7003;31781;54.094;13.428;2022-09-13T01:42:19;2.00;2.00;2.00
46044;PMS7003;31781;54.094;13.428;2022-09-13T01:47:48;2.75;2.75;2.75
46044;PMS7003;31781;54.094;13.428;2022-09-13T01:53:11;3.00;3.00;2.75
46044;PMS7003;31781;54.094;13.428;2022-09-13T01:58:40;1.75;1.75;1.50
46044;PMS7003;31781;54.094;13.428;2022-09-13T02:09:15;3.00;3.00;3.00
46044;PMS7003;31781;54.094;13.428;2022-09-13T02:14:39;5.00;4.00;3.00
46044;PMS7003;31781;54.094;13.428;2022-09-13T02:20:07;4.00;4.00;3.50
46044;PMS7003;31781;54.094;13.428;2022-09-13T02:25:15;2.00;2.00;1.00
46044;PMS7003;31781;54.094;13.428;2022-09-13T02:30:21;3.00;3.00;3.00
46044;PMS7003;31781;54.094;13.428;2022-09-13T02:41:11;2.75;2.75;2.00
46044;PMS7003;31781;54.094;13.428;2022-09-13T02:46:21;1.75;1.75;1.75
46044;PMS7003;31781;54.094;13.428;2022-09-13T02:51:38;4.50;4.50;4.00
46044;PMS7003;31781;54.094;13.428;2022-09-13T02:56:56;3.25;3.25;2.75
46044;PMS7003;31781;54.094;13.428;2022-09-13T03:02:07;3.75;3.75;3.00
46044;PMS7003;31781;54.094;13.428;2022-09-13T03:07:14;2.75;2.75;2.00
46044;PMS7003;31781;54.094;13.428;2022-09-13T03:18:11;3.50;3.50;3.50
46044;PMS7003;31781;54.094;13.428;2022-09-13T03:23:36;3.50;3.50;3.00
46044;PMS7003;31781;54.094;13.428;2022-09-13T03:28:51;2.50;2.50;2.00
46044;PMS7003;31781;54.094;13.428;2022-09-13T03:34:09;3.50;3.50;3.00
46044;PMS7003;31781;54.094;13.428;2022-09-13T03:39:20;4.75;4.00;3.00
46044;PMS7003;31781;54.094;13.428;2022-09-13T03:44:34;4.00;4.00;3.25
46044;PMS7003;31781;54.094;13.428;2022-09-13T04:00:37;5.00;5.00;4.00
46044;PMS7003;31781;54.094;13.428;2022-09-13T04:05:56;5.00;5.00;3.50
46044;PMS7003;31781;54.094;13.428;2022-09-13T04:10:58;6.00;5.00;4.00
46044;PMS7003;31781;54.094;13.428;2022-09-13T04:16:03;5.50;5.50;4.75
46044;PMS7003;31781;54.094;13.428;2022-09-13T04:21:13;6.75;6.75;4.25
46044;PMS7003;31781;54.094;13.428;2022-09-13T04:26:16;4.25;4.25;3.25
46044;PMS7003;31781;54.094;13.428;2022-09-13T04:36:42;5.50;5.50;5.25
46044;PMS7003;31781;54.094;13.428;2022-09-13T04:47:12;7.25;7.00;6.00
46044;PMS7003;31781;54.094;13.428;2022-09-13T04:52:15;5.75;5.75;4.75
46044;PMS7003;31781;54.094;13.428;2022-09-13T04:57:18;5.00;5.00;4.50
46044;PMS7003;31781;54.094;13.428;2022-09-13T05:02:27;6.00;6.00;5.00
46044;PMS7003;31781;54.094;13.428;2022-09-13T05:07:30;7.50;7.50;6.00
46044;PMS7003;31781;54.094;13.428;2022-09-13T05:12:33;7.00;7.00;6.25
46044;PMS7003;31781;54.094;13.428;2022-09-13T05:17:41;8.25;7.25;6.25
46044;PMS7003;31781;54.094;13.428;2022-09-13T05:22:45;7.00;7.00;6.25
46044;PMS7003;31781;54.094;13.428;2022-09-13T05:27:48;7.75;7.75;6.50
46044;PMS7003;31781;54.094;13.428;2022-09-13T05:32:57;7.00;7.00;6.00
46044;PMS7003;31781;54.094;13.428;2022-09-13T05:38:00;5.00;5.00;4.25
46044;PMS7003;31781;54.094;13.428;2022-09-13T05:43:04;6.50;6.50;5.75
46044;PMS7003;31781;54.094;13.428;2022-09-13T05:48:12;5.00;5.00;4.50
46044;PMS7003;31781;54.094;13.428;2022-09-13T05:53:15;7.00;7.00;5.00
46044;PMS7003;31781;54.094;13.428;2022-09-13T05:58:19;6.25;6.25;5.00
46044;PMS7003;31781;54.094;13.428;2022-09-13T06:03:28;7.00;7.00;6.00
46044;PMS7003;31781;54.094;13.428;2022-09-13T06:08:31;6.50;6.50;5.00
46044;PMS7003;31781;54.094;13.428;2022-09-13T06:13:36;8.00;6.75;5.00
46044;PMS7003;31781;54.094;13.428;2022-09-13T06:18:45;4.75;4.75;3.75
46044;PMS7003;31781;54.094;13.428;2022-09-13T06:23:48;6.00;6.00;5.00
46044;PMS7003;31781;54.094;13.428;2022-09-13T06:28:54;6.50;6.50;5.25
46044;PMS7003;31781;54.094;13.428;2022-09-13T06:34:03;7.00;7.00;5.00
46044;PMS7003;31781;54.094;13.428;2022-09-13T06:39:21;5.75;5.50;5.00
46044;PMS7003;31781;54.094;13.428;2022-09-13T06:44:25;6.00;6.00;6.00
46044;PMS7003;31781;54.094;13.428;2022-09-13T06:49:44;7.50;7.50;5.75
46044;PMS7003;31781;54.094;13.428;2022-09-13T06:54:47;9.00;9.00;6.25
46044;PMS7003;31781;54.094;13.428;2022-09-13T06:59:51;10.00;10.00;7.25
46044;PMS7003;31781;54.094;13.428;2022-09-13T07:05:01;7.50;7.50;5.25
46044;PMS7003;31781;54.094;13.428;2022-09-13T07:10:04;6.25;6.25;5.00
46044;PMS7003;31781;54.094;13.428;2022-09-13T07:15:08;8.50;6.50;6.50
46044;PMS7003;31781;54.094;13.428;2022-09-13T07:20:16;7.75;7.75;6.00
46044;PMS7003;31781;54.094;13.428;2022-09-13T07:25:19;7.25;7.25;6.00
46044;PMS7003;31781;54.094;13.428;2022-09-13T07:30:22;5.75;5.75;4.00
46044;PMS7003;31781;54.094;13.428;2022-09-13T07:35:30;7.50;7.50;6.50
46044;PMS7003;31781;54.094;13.428;2022-09-13T07:40:48;8.25;8.25;7.00
46044;PMS7003;31781;54.094;13.428;2022-09-13T07:45:56;5.75;5.75;5.25
46044;PMS7003;31781;54.094;13.428;2022-09-13T07:51:01;10.25;10.25;8.00
46044;PMS7003;31781;54.094;13.428;2022-09-13T07:56:11;9.00;9.00;7.00
46044;PMS7003;31781;54.094;13.428;2022-09-13T08:01:16;10.50;10.50;8.00
46044;PMS7003;31781;54.094;13.428;2022-09-13T08:06:22;9.00;9.00;7.00
46044;PMS7003;31781;54.094;13.428;2022-09-13T08:11:33;11.50;11.50;8.25
46044;PMS7003;31781;54.094;13.428;2022-09-13T08:16:38;8.50;7.75;6.50
46044;PMS7003;31781;54.094;13.428;2022-09-13T08:21:42;7.50;7.50;6.75
46044;PMS7003;31781;54.094;13.428;2022-09-13T08:27:01;9.50;8.50;7.75
46044;PMS7003;31781;54.094;13.428;2022-09-13T08:32:05;10.00;9.75;8.00
46044;PMS7003;31781;54.094;13.428;2022-09-13T08:37:08;9.75;9.75;8.75
46044;PMS7003;31781;54.094;13.428;2022-09-13T08:42:22;10.75;10.75;8.75
46044;PMS7003;31781;54.094;13.428;2022-09-13T08:47:37;10.00;10.00;8.75
46044;PMS7003;31781;54.094;13.428;2022-09-13T09:04:01;10.00;8.75;7.00
46044;PMS7003;31781;54.094;13.428;2022-09-13T09:09:09;12.00;12.00;9.00
46044;PMS7003;31781;54.094;13.428;2022-09-13T09:14:24;12.25;11.00;8.50
46044;PMS7003;31781;54.094;13.428;2022-09-13T09:19:33;11.25;11.25;9.25
46044;PMS7003;31781;54.094;13.428;2022-09-13T09:24:42;12.75;11.50;8.25
46044;PMS7003;31781;54.094;13.428;2022-09-13T09:30:02;10.75;10.75;8.75
46044;PMS7003;31781;54.094;13.428;2022-09-13T09:35:08;10.25;9.00;6.75
46044;PMS7003;31781;54.094;13.428;2022-09-13T09:40:29;10.25;8.50;7.00
46044;PMS7003;31781;54.094;13.428;2022-09-13T09:45:35;10.50;10.50;7.75
46044;PMS7003;31781;54.094;13.428;2022-09-13T09:50:43;9.50;9.50;6.25
46044;PMS7003;31781;54.094;13.428;2022-09-13T09:55:55;9.25;9.25;7.50
46044;PMS7003;31781;54.094;13.428;2022-09-13T10:01:02;5.75;4.00;3.00
46044;PMS7003;31781;54.094;13.428;2022-09-13T10:06:23;7.25;5.00;4.00
46044;PMS7003;31781;54.094;13.428;2022-09-13T10:11:40;2.00;2.00;2.00
46044;PMS7003;31781;54.094;13.428;2022-09-13T10:17:12;7.00;7.00;6.00
46044;PMS7003;31781;54.094;13.428;2022-09-13T10:22:17;6.33;4.67;4.00
46044;PMS7003;31781;54.094;13.428;2022-09-13T10:27:24;5.00;5.00;4.00
46044;PMS7003;31781;54.094;13.428;2022-09-13T10:32:47;4.00;4.00;3.67
46044;PMS7003;31781;54.094;13.428;2022-09-13T10:37:58;3.33;3.33;3.33
46044;PMS7003;31781;54.094;13.428;2022-09-13T10:43:02;4.00;4.00;3.00
46044;PMS7003;31781;54.094;13.428;2022-09-13T10:48:21;4.00;4.00;3.00
46044;PMS7003;31781;54.094;13.428;2022-09-13T10:53:29;2.00;2.00;2.00
46044;PMS7003;31781;54.094;13.428;2022-09-13T10:58:49;0.00;0.00;0.00
46044;PMS7003;31781;54.094;13.428;2022-09-13T11:04:03;0.00;0.00;0.00
46044;PMS7003;31781;54.094;13.428;2022-09-13T11:15:12;0.00;0.00;0.00
46044;PMS7003;31781;54.094;13.428;2022-09-13T11:20:30;0.00;0.00;0.00
46044;PMS7003;31781;54.094;13.428;2022-09-13T11:25:45;0.00;0.00;0.00
46044;PMS7003;31781;54.094;13.428;2022-09-13T11:31:07;0.00;0.00;0.00
46044;PMS7003;31781;54.094;13.428;2022-09-13T11:36:26;0.00;0.00;0.00
46044;PMS7003;31781;54.094;13.428;2022-09-13T11:41:45;0.00;0.00;0.00
46044;PMS7003;31781;54.094;13.428;2022-09-13T11:47:06;0.00;0.00;0.00
46044;PMS7003;31781;54.094;13.428;2022-09-13T11:52:20;0.00;0.00;0.00
46044;PMS7003;31781;54.094;13.428;2022-09-13T11:57:33;1.33;0.00;0.00
46044;PMS7003;31781;54.094;13.428;2022-09-13T12:02:46;0.00;0.00;0.00
46044;PMS7003;31781;54.094;13.428;2022-09-13T12:07:58;0.00;0.00;0.00
46044;PMS7003;31781;54.094;13.428;2022-09-13T12:13:08;0.00;0.00;0.00
46044;PMS7003;31781;54.094;13.428;2022-09-13T12:18:22;1.00;0.00;0.00
46044;PMS7003;31781;54.094;13.428;2022-09-13T12:23:30;0.00;0.00;0.00
46044;PMS7003;31781;54.094;13.428;2022-09-13T12:28:39;0.00;0.00;0.00
46044;PMS7003;31781;54.094;13.428;2022-09-13T12:33:52;0.00;0.00;0.00
46044;PMS7003;31781;54.094;13.428;2022-09-13T12:44:54;2.00;0.00;0.00
46044;PMS7003;31781;54.094;13.428;2022-09-13T12:50:16;0.00;0.00;0.00
46044;PMS7003;31781;54.094;13.428;2022-09-13T13:01:49;0.33;0.00;0.00
46044;PMS7003;31781;54.094;13.428;2022-09-13T13:06:53;1.00;1.00;0.00
46044;PMS7003;31781;54.094;13.428;2022-09-13T13:11:58;0.00;0.00;0.00
46044;PMS7003;31781;54.094;13.428;2022-09-13T13:23:01;0.00;0.00;0.00
46044;PMS7003;31781;54.094;13.428;2022-09-13T13:38:55;0.00;0.00;0.00
46044;PMS7003;31781;54.094;13.428;2022-09-13T13:50:11;0.00;0.00;0.00
46044;PMS7003;31781;54.094;13.428;2022-09-13T13:55:38;0.00;0.00;0.00
46044;PMS7003;31781;54.094;13.428;2022-09-13T14:00:47;2.00;0.00;0.00
46044;PMS7003;31781;54.094;13.428;2022-09-13T14:05:53;1.00;0.00;0.00
46044;PMS7003;31781;54.094;13.428;2022-09-13T14:11:09;0.00;0.00;0.00
46044;PMS7003;31781;54.094;13.428;2022-09-13T14:16:24;0.00;0.00;0.00
46044;PMS7003;31781;54.094;13.428;2022-09-13T14:21:37;0.00;0.00;0.00
46044;PMS7003;31781;54.094;13.428;2022-09-13T14:26:47;0.00;0.00;0.00
46044;PMS7003;31781;54.094;13.428;2022-09-13T14:31:52;0.00;0.00;0.00
46044;PMS7003;31781;54.094;13.428;2022-09-13T14:37:03;0.00;0.00;0.00
46044;PMS7003;31781;54.094;13.428;2022-09-13T14:42:18;1.00;0.00;0.00
46044;PMS7003;31781;54.094;13.428;2022-09-13T14:47:24;0.00;0.00;0.00
46044;PMS7003;31781;54.094;13.428;2022-09-13T14:57:51;0.00;0.00;0.00
46044;PMS7003;31781;54.094;13.428;2022-09-13T15:02:59;0.00;0.00;0.00
46044;PMS7003;31781;54.094;13.428;2022-09-13T15:08:22;0.00;0.00;0.00
46044;PMS7003;31781;54.094;13.428;2022-09-13T15:13:33;0.00;0.00;0.00
46044;PMS7003;31781;54.094;13.428;2022-09-13T15:18:36;0.00;0.00;0.00
46044;PMS7003;31781;54.094;13.428;2022-09-13T15:29:00;0.00;0.00;0.00
46044;PMS7003;31781;54.094;13.428;2022-09-13T15:34:10;1.00;1.00;0.00
46044;PMS7003;31781;54.094;13.428;2022-09-13T15:39:15;0.00;0.00;0.00
46044;PMS7003;31781;54.094;13.428;2022-09-13T15:44:25;0.00;0.00;0.00
46044;PMS7003;31781;54.094;13.428;2022-09-13T15:49:45;0.00;0.00;0.00
46044;PMS7003;31781;54.094;13.428;2022-09-13T15:54:51;0.00;0.00;0.00
46044;PMS7003;31781;54.094;13.428;2022-09-13T15:59:54;0.00;0.00;0.00
46044;PMS7003;31781;54.094;13.428;2022-09-13T16:05:13;0.00;0.00;0.00
46044;PMS7003;31781;54.094;13.428;2022-09-13T16:10:19;0.00;0.00;0.00
46044;PMS7003;31781;54.094;13.428;2022-09-13T16:15:39;0.00;0.00;0.00
46044;PMS7003;31781;54.094;13.428;2022-09-13T16:20:43;2.67;2.67;2.33
46044;PMS7003;31781;54.094;13.428;2022-09-13T16:25:46;0.67;0.00;0.00
46044;PMS7003;31781;54.094;13.428;2022-09-13T16:30:56;0.00;0.00;0.00
46044;PMS7003;31781;54.094;13.428;2022-09-13T16:36:01;0.00;0.00;0.00
46044;PMS7003;31781;54.094;13.428;2022-09-13T16:41:04;0.00;0.00;0.00
46044;PMS7003;31781;54.094;13.428;2022-09-13T16:46:26;0.00;0.00;0.00
46044;PMS7003;31781;54.094;13.428;2022-09-13T16:51:31;0.00;0.00;0.00
46044;PMS7003;31781;54.094;13.428;2022-09-13T16:56:36;0.00;0.00;0.00
46044;PMS7003;31781;54.094;13.428;2022-09-13T17:01:44;0.67;0.00;0.00
46044;PMS7003;31781;54.094;13.428;2022-09-13T17:06:47;0.00;0.00;0.00
46044;PMS7003;31781;54.094;13.428;2022-09-13T17:11:50;0.33;0.00;0.00
46044;PMS7003;31781;54.094;13.428;2022-09-13T17:16:59;5.67;5.67;4.00
46044;PMS7003;31781;54.094;13.428;2022-09-13T17:22:03;0.00;0.00;0.00
46044;PMS7003;31781;54.094;13.428;2022-09-13T17:27:06;0.67;0.67;0.67
46044;PMS7003;31781;54.094;13.428;2022-09-13T17:32:14;0.00;0.00;0.00
46044;PMS7003;31781;54.094;13.428;2022-09-13T17:37:17;1.00;1.00;0.00
46044;PMS7003;31781;54.094;13.428;2022-09-13T17:42:20;0.00;0.00;0.00
46044;PMS7003;31781;54.094;13.428;2022-09-13T17:47:29;0.00;0.00;0.00
46044;PMS7003;31781;54.094;13.428;2022-09-13T17:52:32;1.00;1.00;0.67
46044;PMS7003;31781;54.094;13.428;2022-09-13T17:57:35;0.00;0.00;0.00
46044;PMS7003;31781;54.094;13.428;2022-09-13T18:02:54;1.67;1.67;1.67
46044;PMS7003;31781;54.094;13.428;2022-09-13T18:08:13;0.33;0.33;0.00
46044;PMS7003;31781;54.094;13.428;2022-09-13T18:13:31;0.00;0.00;0.00
46044;PMS7003;31781;54.094;13.428;2022-09-13T18:18:36;2.00;0.67;0.00
46044;PMS7003;31781;54.094;13.428;2022-09-13T18:23:48;0.00;0.00;0.00
46044;PMS7003;31781;54.094;13.428;2022-09-13T18:28:59;0.75;0.50;0.50
46044;PMS7003;31781;54.094;13.428;2022-09-13T18:44:37;8.25;8.25;7.00
46044;PMS7003;31781;54.094;13.428;2022-09-13T18:49:42;0.50;0.50;0.00
46044;PMS7003;31781;54.094;13.428;2022-09-13T18:54:45;0.00;0.00;0.00
46044;PMS7003;31781;54.094;13.428;2022-09-13T19:05:08;0.00;0.00;0.00
46044;PMS7003;31781;54.094;13.428;2022-09-13T19:15:39;0.50;0.50;0.50
46044;PMS7003;31781;54.094;13.428;2022-09-13T19:20:42;1.00;1.00;0.25
46044;PMS7003;31781;54.094;13.428;2022-09-13T19:25:46;1.00;0.00;0.00
46044;PMS7003;31781;54.094;13.428;2022-09-13T19:30:54;0.00;0.00;0.00
46044;PMS7003;31781;54.094;13.428;2022-09-13T19:36:03;0.00;0.00;0.00
46044;PMS7003;31781;54.094;13.428;2022-09-13T19:41:08;0.00;0.00;0.00
46044;PMS7003;31781;54.094;13.428;2022-09-13T19:46:30;0.00;0.00;0.00
46044;PMS7003;31781;54.094;13.428;2022-09-13T19:51:37;0.00;0.00;0.00
46044;PMS7003;31781;54.094;13.428;2022-09-13T19:56:41;0.50;0.50;0.00
46044;PMS7003;31781;54.094;13.428;2022-09-13T20:01:52;0.00;0.00;0.00
46044;PMS7003;31781;54.094;13.428;2022-09-13T20:06:58;0.00;0.00;0.00
46044;PMS7003;31781;54.094;13.428;2022-09-13T20:12:02;0.00;0.00;0.00
46044;PMS7003;31781;54.094;13.428;2022-09-13T20:17:11;1.00;0.00;0.00
46044;PMS7003;31781;54.094;13.428;2022-09-13T20:22:16;0.00;0.00;0.00
46044;PMS7003;31781;54.094;13.428;2022-09-13T20:27:19;0.00;0.00;0.00
46044;PMS7003;31781;54.094;13.428;2022-09-13T20:32:39;0.00;0.00;0.00
46044;PMS7003;31781;54.094;13.428;2022-09-13T20:37:57;1.00;0.00;0.00
46044;PMS7003;31781;54.094;13.428;2022-09-13T20:43:00;0.00;0.00;0.00
46044;PMS7003;31781;54.094;13.428;2022-09-13T20:48:03;0.00;0.00;0.00
46044;PMS7003;31781;54.094;13.428;2022-09-13T20:53:12;2.00;0.25;0.00
46044;PMS7003;31781;54.094;13.428;2022-09-13T20:58:17;0.00;0.00;0.00
46044;PMS7003;31781;54.094;13.428;2022-09-13T21:03:21;0.00;0.00;0.00
46044;PMS7003;31781;54.094;13.428;2022-09-13T21:08:29;0.75;0.75;0.00
46044;PMS7003;31781;54.094;13.428;2022-09-13T21:13:32;0.00;0.00;0.00
46044;PMS7003;31781;54.094;13.428;2022-09-13T21:18:36;0.00;0.00;0.00
46044;PMS7003;31781;54.094;13.428;2022-09-13T21:23:46;0.00;0.00;0.00
46044;PMS7003;31781;54.094;13.428;2022-09-13T21:29:07;0.00;0.00;0.00
46044;PMS7003;31781;54.094;13.428;2022-09-13T21:34:25;0.00;0.00;0.00
46044;PMS7003;31781;54.094;13.428;2022-09-13T21:39:28;0.00;0.00;0.00
46044;PMS7003;31781;54.094;13.428;2022-09-13T21:44:31;0.25;0.25;0.00
46044;PMS7003;31781;54.094;13.428;2022-09-13T21:49:50;0.00;0.00;0.00
46044;PMS7003;31781;54.094;13.428;2022-09-13T21:54:53;0.00;0.00;0.00
46044;PMS7003;31781;54.094;13.428;2022-09-13T21:59:55;0.00;0.00;0.00
46044;PMS7003;31781;54.094;13.428;2022-09-13T22:05:04;2.00;0.00;0.00
46044;PMS7003;31781;54.094;13.428;2022-09-13T22:10:08;1.00;1.00;1.00
46044;PMS7003;31781;54.094;13.428;2022-09-13T22:15:12;0.00;0.00;0.00
46044;PMS7003;31781;54.094;13.428;2022-09-13T22:20:20;0.00;0.00;0.00
46044;PMS7003;31781;54.094;13.428;2022-09-13T22:25:23;0.00;0.00;0.00
46044;PMS7003;31781;54.094;13.428;2022-09-13T22:41:13;0.00;0.00;0.00
46044;PMS7003;31781;54.094;13.428;2022-09-13T22:51:36;1.75;0.00;0.00
46044;PMS7003;31781;54.094;13.428;2022-09-13T22:56:40;0.00;0.00;0.00
46044;PMS7003;31781;54.094;13.428;2022-09-13T23:01:43;0.00;0.00;0.00
46044;PMS7003;31781;54.094;13.428;2022-09-13T23:12:05;0.00;0.00;0.00
46044;PMS7003;31781;54.094;13.428;2022-09-13T23:17:08;0.00;0.00;0.00
46044;PMS7003;31781;54.094;13.428;2022-09-13T23:22:11;1.25;0.00;0.00
46044;PMS7003;31781;54.094;13.428;2022-09-13T23:27:20;0.00;0.00;0.00
46044;PMS7003;31781;54.094;13.428;2022-09-13T23:32:23;0.00;0.00;0.00
46044;PMS7003;31781;54.094;13.428;2022-09-13T23:37:42;0.50;0.00;0.00
46044;PMS7003;31781;54.094;13.428;2022-09-13T23:42:46;0.00;0.00;0.00
46044;PMS7003;31781;54.094;13.428;2022-09-13T23:47:50;0.00;0.00;0.00
46044;PMS7003;31781;54.094;13.428;2022-09-13T23:53:00;0.00;0.00;0.00
46044;PMS7003;31781;54.094;13.428;2022-09-13T23:58:04;1.00;0.00;0.00
